sensor_id;sensor_type;location;lat;lon;timestamp;P1;durP1;ratioP1;P2;durP2;ratioP2
1306;SDS011;646;48.696;9.114;2023-02-28T00:00:33;4.75;;;2.75;;
1306;SDS011;646;48.696;9.114;2023-02-28T00:02:59;3.38;;;2.70;;
1306;SDS011;646;48.696;9.114;2023-02-28T00:05:26;3.10;;;2.77;;
1306;SDS011;646;48.696;9.114;2023-02-28T00:07:52;3.20;;;2.60;;
1306;SDS011;646;48.696;9.114;2023-02-28T00:10:18;3.00;;;2.17;;
1306;SDS011;646;48.696;9.114;2023-02-28T00:12:49;4.45;;;3.40;;
1306;SDS011;646;48.696;9.114;2023-02-28T00:15:16;2.35;;;2.17;;
1306;SDS011;646;48.696;9.114;2023-02-28T00:17:42;3.20;;;2.10;;
1306;SDS011;646;48.696;9.114;2023-02-28T00:20:08;5.18;;;2.50;;
1306;SDS011;646;48.696;9.114;2023-02-28T00:22:37;2.85;;;2.65;;
1306;SDS011;646;48.696;9.114;2023-02-28T00:25:04;3.22;;;2.92;;
1306;SDS011;646;48.696;9.114;2023-02-28T00:27:32;4.00;;;3.50;;
1306;SDS011;646;48.696;9.114;2023-02-28T00:29:58;2.45;;;2.25;;
1306;SDS011;646;48.696;9.114;2023-02-28T00:32:23;2.57;;;2.47;;
1306;SDS011;646;48.696;9.114;2023-02-28T00:34:49;3.03;;;2.47;;
1306;SDS011;646;48.696;9.114;2023-02-28T00:37:14;2.73;;;2.53;;
1306;SDS011;646;48.696;9.114;2023-02-28T00:39:40;3.63;;;3.20;;
1306;SDS011;646;48.696;9.114;2023-02-28T00:42:06;2.10;;;2.00;;
1306;SDS011;646;48.696;9.114;2023-02-28T00:44:32;3.38;;;2.72;;
1306;SDS011;646;48.696;9.114;2023-02-28T00:46:58;3.20;;;2.92;;
1306;SDS011;646;48.696;9.114;2023-02-28T00:49:25;2.80;;;2.60;;
1306;SDS011;646;48.696;9.114;2023-02-28T00:51:51;2.97;;;2.65;;
1306;SDS011;646;48.696;9.114;2023-02-28T00:54:18;2.85;;;2.65;;
1306;SDS011;646;48.696;9.114;2023-02-28T00:56:45;2.85;;;2.65;;
1306;SDS011;646;48.696;9.114;2023-02-28T00:59:11;2.53;;;2.33;;
1306;SDS011;646;48.696;9.114;2023-02-28T01:01:37;3.00;;;2.70;;
1306;SDS011;646;48.696;9.114;2023-02-28T01:04:02;3.40;;;2.77;;
1306;SDS011;646;48.696;9.114;2023-02-28T01:06:28;7.97;;;2.60;;
1306;SDS011;646;48.696;9.114;2023-02-28T01:08:53;2.63;;;2.43;;
1306;SDS011;646;48.696;9.114;2023-02-28T01:11:19;6.67;;;2.90;;
1306;SDS011;646;48.696;9.114;2023-02-28T01:13:45;3.67;;;3.23;;
1306;SDS011;646;48.696;9.114;2023-02-28T01:16:11;3.15;;;2.88;;
1306;SDS011;646;48.696;9.114;2023-02-28T01:18:38;3.28;;;2.97;;
1306;SDS011;646;48.696;9.114;2023-02-28T01:21:04;3.63;;;3.10;;
1306;SDS011;646;48.696;9.114;2023-02-28T01:23:30;6.40;;;3.28;;
1306;SDS011;646;48.696;9.114;2023-02-28T01:25:56;3.05;;;2.40;;
1306;SDS011;646;48.696;9.114;2023-02-28T01:28:22;3.20;;;2.90;;
1306;SDS011;646;48.696;9.114;2023-02-28T01:30:49;3.03;;;2.50;;
1306;SDS011;646;48.696;9.114;2023-02-28T01:33:15;2.50;;;2.30;;
1306;SDS011;646;48.696;9.114;2023-02-28T01:35:40;3.80;;;3.20;;
1306;SDS011;646;48.696;9.114;2023-02-28T01:38:06;2.70;;;2.50;;
1306;SDS011;646;48.696;9.114;2023-02-28T01:40:31;5.87;;;2.43;;
1306;SDS011;646;48.696;9.114;2023-02-28T01:42:57;4.43;;;3.30;;
1306;SDS011;646;48.696;9.114;2023-02-28T01:45:27;4.50;;;3.30;;
1306;SDS011;646;48.696;9.114;2023-02-28T01:48:00;3.58;;;3.15;;
1306;SDS011;646;48.696;9.114;2023-02-28T01:50:29;3.10;;;2.75;;
1306;SDS011;646;48.696;9.114;2023-02-28T01:52:59;3.53;;;3.08;;
1306;SDS011;646;48.696;9.114;2023-02-28T01:55:27;2.70;;;2.50;;
1306;SDS011;646;48.696;9.114;2023-02-28T01:57:54;4.25;;;3.25;;
1306;SDS011;646;48.696;9.114;2023-02-28T02:00:24;3.67;;;3.10;;
1306;SDS011;646;48.696;9.114;2023-02-28T02:02:53;3.40;;;3.17;;
1306;SDS011;646;48.696;9.114;2023-02-28T02:05:23;2.50;;;2.28;;
1306;SDS011;646;48.696;9.114;2023-02-28T02:07:51;3.30;;;2.90;;
1306;SDS011;646;48.696;9.114;2023-02-28T02:10:35;3.17;;;2.88;;
1306;SDS011;646;48.696;9.114;2023-02-28T02:16:02;3.35;;;2.95;;
1306;SDS011;646;48.696;9.114;2023-02-28T02:26:43;3.60;;;3.30;;
1306;SDS011;646;48.696;9.114;2023-02-28T02:37:47;3.65;;;3.35;;
1306;SDS011;646;48.696;9.114;2023-02-28T02:40:14;3.25;;;3.00;;
1306;SDS011;646;48.696;9.114;2023-02-28T02:45:17;4.80;;;3.60;;
1306;SDS011;646;48.696;9.114;2023-02-28T02:47:44;3.67;;;3.38;;
1306;SDS011;646;48.696;9.114;2023-02-28T02:50:14;3.00;;;2.80;;
1306;SDS011;646;48.696;9.114;2023-02-28T02:52:48;3.70;;;3.40;;
1306;SDS011;646;48.696;9.114;2023-02-28T02:55:17;4.35;;;3.92;;
1306;SDS011;646;48.696;9.114;2023-02-28T02:57:49;4.38;;;3.33;;
1306;SDS011;646;48.696;9.114;2023-02-28T03:00:24;4.28;;;3.85;;
1306;SDS011;646;48.696;9.114;2023-02-28T03:02:55;3.85;;;3.40;;
1306;SDS011;646;48.696;9.114;2023-02-28T03:05:55;4.07;;;3.47;;
1306;SDS011;646;48.696;9.114;2023-02-28T03:08:14;6.53;;;3.72;;
1306;SDS011;646;48.696;9.114;2023-02-28T03:10:44;5.27;;;3.87;;
1306;SDS011;646;48.696;9.114;2023-02-28T03:21:37;3.60;;;3.30;;
1306;SDS011;646;48.696;9.114;2023-02-28T03:26:52;5.40;;;4.05;;
1306;SDS011;646;48.696;9.114;2023-02-28T03:29:32;4.55;;;3.60;;
1306;SDS011;646;48.696;9.114;2023-02-28T03:32:05;4.15;;;3.75;;
1306;SDS011;646;48.696;9.114;2023-02-28T03:34:46;3.60;;;3.30;;
1306;SDS011;646;48.696;9.114;2023-02-28T03:37:19;6.00;;;4.57;;
1306;SDS011;646;48.696;9.114;2023-02-28T03:39:49;5.40;;;4.25;;
1306;SDS011;646;48.696;9.114;2023-02-28T03:42:21;4.70;;;4.30;;
1306;SDS011;646;48.696;9.114;2023-02-28T03:47:39;4.07;;;3.78;;
1306;SDS011;646;48.696;9.114;2023-02-28T03:50:17;5.63;;;4.75;;
1306;SDS011;646;48.696;9.114;2023-02-28T03:52:50;6.63;;;4.60;;
1306;SDS011;646;48.696;9.114;2023-02-28T03:55:30;5.63;;;4.80;;
1306;SDS011;646;48.696;9.114;2023-02-28T03:58:21;5.13;;;4.57;;
1306;SDS011;646;48.696;9.114;2023-02-28T04:00:51;4.50;;;4.10;;
1306;SDS011;646;48.696;9.114;2023-02-28T04:03:24;5.90;;;5.50;;
1306;SDS011;646;48.696;9.114;2023-02-28T04:05:50;5.23;;;4.80;;
1306;SDS011;646;48.696;9.114;2023-02-28T04:08:21;4.80;;;4.35;;
1306;SDS011;646;48.696;9.114;2023-02-28T04:10:49;6.20;;;4.85;;
1306;SDS011;646;48.696;9.114;2023-02-28T04:13:20;4.25;;;3.85;;
1306;SDS011;646;48.696;9.114;2023-02-28T04:15:46;6.13;;;4.13;;
1306;SDS011;646;48.696;9.114;2023-02-28T04:18:11;7.70;;;5.37;;
1306;SDS011;646;48.696;9.114;2023-02-28T04:20:37;5.03;;;4.50;;
1306;SDS011;646;48.696;9.114;2023-02-28T04:23:02;5.03;;;4.60;;
1306;SDS011;646;48.696;9.114;2023-02-28T04:25:28;4.53;;;4.10;;
1306;SDS011;646;48.696;9.114;2023-02-28T04:27:53;5.80;;;4.93;;
1306;SDS011;646;48.696;9.114;2023-02-28T04:30:18;4.57;;;4.17;;
1306;SDS011;646;48.696;9.114;2023-02-28T04:32:44;4.47;;;4.07;;
1306;SDS011;646;48.696;9.114;2023-02-28T04:35:09;5.67;;;5.17;;
1306;SDS011;646;48.696;9.114;2023-02-28T04:37:35;5.00;;;4.47;;
1306;SDS011;646;48.696;9.114;2023-02-28T04:40:01;6.35;;;4.53;;
1306;SDS011;646;48.696;9.114;2023-02-28T04:42:28;5.65;;;5.05;;
1306;SDS011;646;48.696;9.114;2023-02-28T04:45:00;5.38;;;4.88;;
1306;SDS011;646;48.696;9.114;2023-02-28T04:47:28;4.32;;;3.92;;
1306;SDS011;646;48.696;9.114;2023-02-28T04:49:54;6.23;;;5.00;;
1306;SDS011;646;48.696;9.114;2023-02-28T04:52:20;7.18;;;4.90;;
1306;SDS011;646;48.696;9.114;2023-02-28T04:54:46;5.53;;;5.03;;
1306;SDS011;646;48.696;9.114;2023-02-28T04:57:11;5.50;;;4.93;;
1306;SDS011;646;48.696;9.114;2023-02-28T04:59:37;5.67;;;4.63;;
1306;SDS011;646;48.696;9.114;2023-02-28T05:02:03;5.60;;;4.50;;
1306;SDS011;646;48.696;9.114;2023-02-28T05:04:31;5.95;;;4.80;;
1306;SDS011;646;48.696;9.114;2023-02-28T05:07:01;6.30;;;4.43;;
1306;SDS011;646;48.696;9.114;2023-02-28T05:09:27;6.40;;;4.72;;
1306;SDS011;646;48.696;9.114;2023-02-28T05:11:54;6.37;;;5.07;;
1306;SDS011;646;48.696;9.114;2023-02-28T05:14:20;6.63;;;3.85;;
1306;SDS011;646;48.696;9.114;2023-02-28T05:16:46;6.47;;;4.80;;
1306;SDS011;646;48.696;9.114;2023-02-28T05:19:11;5.13;;;4.33;;
1306;SDS011;646;48.696;9.114;2023-02-28T05:21:50;7.77;;;4.20;;
1306;SDS011;646;48.696;9.114;2023-02-28T05:24:18;5.20;;;3.80;;
1306;SDS011;646;48.696;9.114;2023-02-28T05:26:47;4.68;;;4.22;;
1306;SDS011;646;48.696;9.114;2023-02-28T05:29:14;5.82;;;4.60;;
1306;SDS011;646;48.696;9.114;2023-02-28T05:31:40;14.13;;;8.57;;
1306;SDS011;646;48.696;9.114;2023-02-28T05:34:05;8.43;;;5.40;;
1306;SDS011;646;48.696;9.114;2023-02-28T05:36:31;5.60;;;5.13;;
1306;SDS011;646;48.696;9.114;2023-02-28T05:38:57;6.07;;;5.57;;
1306;SDS011;646;48.696;9.114;2023-02-28T05:41:22;7.30;;;5.43;;
1306;SDS011;646;48.696;9.114;2023-02-28T05:43:48;5.87;;;5.37;;
1306;SDS011;646;48.696;9.114;2023-02-28T05:46:13;7.03;;;5.80;;
1306;SDS011;646;48.696;9.114;2023-02-28T05:48:40;6.68;;;5.50;;
1306;SDS011;646;48.696;9.114;2023-02-28T05:51:07;6.18;;;5.53;;
1306;SDS011;646;48.696;9.114;2023-02-28T05:53:34;6.07;;;4.60;;
1306;SDS011;646;48.696;9.114;2023-02-28T05:56:00;7.05;;;5.80;;
1306;SDS011;646;48.696;9.114;2023-02-28T05:58:26;8.30;;;5.60;;
1306;SDS011;646;48.696;9.114;2023-02-28T06:00:55;4.65;;;3.97;;
1306;SDS011;646;48.696;9.114;2023-02-28T06:03:24;6.28;;;5.68;;
1306;SDS011;646;48.696;9.114;2023-02-28T06:05:50;7.43;;;5.18;;
1306;SDS011;646;48.696;9.114;2023-02-28T06:08:16;4.90;;;4.40;;
1306;SDS011;646;48.696;9.114;2023-02-28T06:10:41;6.97;;;6.20;;
1306;SDS011;646;48.696;9.114;2023-02-28T06:13:07;5.67;;;4.70;;
1306;SDS011;646;48.696;9.114;2023-02-28T06:15:33;5.73;;;5.13;;
1306;SDS011;646;48.696;9.114;2023-02-28T06:17:58;7.87;;;4.90;;
1306;SDS011;646;48.696;9.114;2023-02-28T06:20:25;8.53;;;5.27;;
1306;SDS011;646;48.696;9.114;2023-02-28T06:22:54;6.70;;;6.10;;
1306;SDS011;646;48.696;9.114;2023-02-28T06:25:21;6.85;;;5.32;;
1306;SDS011;646;48.696;9.114;2023-02-28T06:27:46;7.17;;;5.77;;
1306;SDS011;646;48.696;9.114;2023-02-28T06:30:13;6.05;;;5.47;;
1306;SDS011;646;48.696;9.114;2023-02-28T06:32:38;7.57;;;6.27;;
1306;SDS011;646;48.696;9.114;2023-02-28T06:35:04;6.70;;;5.20;;
1306;SDS011;646;48.696;9.114;2023-02-28T06:37:30;6.63;;;5.87;;
1306;SDS011;646;48.696;9.114;2023-02-28T06:39:57;6.40;;;5.03;;
1306;SDS011;646;48.696;9.114;2023-02-28T06:42:23;7.10;;;5.23;;
1306;SDS011;646;48.696;9.114;2023-02-28T06:44:53;7.78;;;5.82;;
1306;SDS011;646;48.696;9.114;2023-02-28T06:47:20;7.82;;;5.40;;
1306;SDS011;646;48.696;9.114;2023-02-28T06:49:46;7.77;;;5.80;;
1306;SDS011;646;48.696;9.114;2023-02-28T06:52:11;8.83;;;6.60;;
1306;SDS011;646;48.696;9.114;2023-02-28T06:54:37;6.13;;;5.03;;
1306;SDS011;646;48.696;9.114;2023-02-28T06:57:02;8.70;;;6.20;;
1306;SDS011;646;48.696;9.114;2023-02-28T06:59:28;7.10;;;5.57;;
1306;SDS011;646;48.696;9.114;2023-02-28T07:01:53;6.00;;;5.40;;
1306;SDS011;646;48.696;9.114;2023-02-28T07:04:20;6.25;;;5.45;;
1306;SDS011;646;48.696;9.114;2023-02-28T07:06:46;8.18;;;7.30;;
1306;SDS011;646;48.696;9.114;2023-02-28T07:09:11;5.60;;;3.90;;
1306;SDS011;646;48.696;9.114;2023-02-28T07:11:37;9.57;;;6.37;;
1306;SDS011;646;48.696;9.114;2023-02-28T07:14:02;8.20;;;6.60;;
1306;SDS011;646;48.696;9.114;2023-02-28T07:16:28;6.73;;;5.17;;
1306;SDS011;646;48.696;9.114;2023-02-28T07:18:53;7.87;;;6.67;;
1306;SDS011;646;48.696;9.114;2023-02-28T07:21:20;10.90;;;7.18;;
1306;SDS011;646;48.696;9.114;2023-02-28T07:23:46;7.78;;;6.97;;
1306;SDS011;646;48.696;9.114;2023-02-28T07:26:13;8.90;;;7.40;;
1306;SDS011;646;48.696;9.114;2023-02-28T07:28:40;7.32;;;6.00;;
1306;SDS011;646;48.696;9.114;2023-02-28T07:31:07;9.27;;;6.30;;
1306;SDS011;646;48.696;9.114;2023-02-28T07:33:34;8.90;;;7.40;;
1306;SDS011;646;48.696;9.114;2023-02-28T07:36:04;10.10;;;8.00;;
1306;SDS011;646;48.696;9.114;2023-02-28T07:38:35;7.95;;;6.43;;
1306;SDS011;646;48.696;9.114;2023-02-28T07:41:01;8.50;;;7.65;;
1306;SDS011;646;48.696;9.114;2023-02-28T07:43:29;8.70;;;7.30;;
1306;SDS011;646;48.696;9.114;2023-02-28T07:45:55;6.75;;;6.05;;
1306;SDS011;646;48.696;9.114;2023-02-28T07:48:25;7.75;;;6.93;;
1306;SDS011;646;48.696;9.114;2023-02-28T07:50:57;8.73;;;6.47;;
1306;SDS011;646;48.696;9.114;2023-02-28T07:53:24;8.65;;;6.25;;
1306;SDS011;646;48.696;9.114;2023-02-28T07:55:50;6.82;;;6.13;;
1306;SDS011;646;48.696;9.114;2023-02-28T07:58:15;10.57;;;7.70;;
1306;SDS011;646;48.696;9.114;2023-02-28T08:00:41;7.97;;;7.10;;
1306;SDS011;646;48.696;9.114;2023-02-28T08:03:07;8.30;;;7.50;;
1306;SDS011;646;48.696;9.114;2023-02-28T08:05:39;7.78;;;6.00;;
1306;SDS011;646;48.696;9.114;2023-02-28T08:08:05;11.23;;;7.72;;
1306;SDS011;646;48.696;9.114;2023-02-28T08:10:32;6.82;;;6.15;;
1306;SDS011;646;48.696;9.114;2023-02-28T08:12:57;9.83;;;6.80;;
1306;SDS011;646;48.696;9.114;2023-02-28T08:15:23;10.80;;;7.70;;
1306;SDS011;646;48.696;9.114;2023-02-28T08:17:48;9.40;;;7.27;;
1306;SDS011;646;48.696;9.114;2023-02-28T08:20:14;12.30;;;10.60;;
1306;SDS011;646;48.696;9.114;2023-02-28T08:22:39;10.57;;;9.10;;
1306;SDS011;646;48.696;9.114;2023-02-28T08:25:05;9.57;;;8.27;;
1306;SDS011;646;48.696;9.114;2023-02-28T08:27:32;7.55;;;6.40;;
1306;SDS011;646;48.696;9.114;2023-02-28T08:29:57;9.73;;;7.50;;
1306;SDS011;646;48.696;9.114;2023-02-28T08:32:23;10.47;;;7.27;;
1306;SDS011;646;48.696;9.114;2023-02-28T08:34:48;12.07;;;8.03;;
1306;SDS011;646;48.696;9.114;2023-02-28T08:37:14;9.77;;;7.20;;
1306;SDS011;646;48.696;9.114;2023-02-28T08:39:39;10.23;;;7.97;;
1306;SDS011;646;48.696;9.114;2023-02-28T08:42:05;12.63;;;8.40;;
1306;SDS011;646;48.696;9.114;2023-02-28T08:44:30;9.60;;;6.73;;
1306;SDS011;646;48.696;9.114;2023-02-28T08:46:56;11.87;;;7.53;;
1306;SDS011;646;48.696;9.114;2023-02-28T08:49:21;10.27;;;7.60;;
1306;SDS011;646;48.696;9.114;2023-02-28T08:51:47;10.07;;;7.37;;
1306;SDS011;646;48.696;9.114;2023-02-28T08:54:12;9.53;;;7.37;;
1306;SDS011;646;48.696;9.114;2023-02-28T08:56:40;10.55;;;7.07;;
1306;SDS011;646;48.696;9.114;2023-02-28T08:59:06;8.57;;;7.67;;
1306;SDS011;646;48.696;9.114;2023-02-28T09:01:33;9.45;;;8.48;;
1306;SDS011;646;48.696;9.114;2023-02-28T09:04:01;8.05;;;7.22;;
1306;SDS011;646;48.696;9.114;2023-02-28T09:06:27;10.38;;;8.25;;
1306;SDS011;646;48.696;9.114;2023-02-28T09:08:55;8.00;;;7.20;;
1306;SDS011;646;48.696;9.114;2023-02-28T09:11:23;9.07;;;6.90;;
1306;SDS011;646;48.696;9.114;2023-02-28T09:13:49;7.63;;;6.80;;
1306;SDS011;646;48.696;9.114;2023-02-28T09:16:15;10.20;;;6.90;;
1306;SDS011;646;48.696;9.114;2023-02-28T09:18:41;15.15;;;10.50;;
1306;SDS011;646;48.696;9.114;2023-02-28T09:21:08;10.73;;;7.13;;
1306;SDS011;646;48.696;9.114;2023-02-28T09:23:36;11.35;;;7.35;;
1306;SDS011;646;48.696;9.114;2023-02-28T09:26:04;8.07;;;6.95;;
1306;SDS011;646;48.696;9.114;2023-02-28T09:28:30;11.07;;;7.35;;
1306;SDS011;646;48.696;9.114;2023-02-28T09:30:56;7.90;;;7.10;;
1306;SDS011;646;48.696;9.114;2023-02-28T09:33:25;9.82;;;7.10;;
1306;SDS011;646;48.696;9.114;2023-02-28T09:35:50;8.77;;;6.83;;
1306;SDS011;646;48.696;9.114;2023-02-28T09:38:22;10.13;;;7.85;;
1306;SDS011;646;48.696;9.114;2023-02-28T09:40:49;9.40;;;7.23;;
1306;SDS011;646;48.696;9.114;2023-02-28T09:43:17;9.10;;;7.30;;
1306;SDS011;646;48.696;9.114;2023-02-28T09:45:48;8.02;;;6.43;;
1306;SDS011;646;48.696;9.114;2023-02-28T09:48:24;7.65;;;6.95;;
1306;SDS011;646;48.696;9.114;2023-02-28T09:50:55;9.45;;;7.57;;
1306;SDS011;646;48.696;9.114;2023-02-28T09:53:33;9.20;;;8.15;;
1306;SDS011;646;48.696;9.114;2023-02-28T09:56:15;11.13;;;7.82;;
1306;SDS011;646;48.696;9.114;2023-02-28T09:58:53;8.80;;;7.75;;
1306;SDS011;646;48.696;9.114;2023-02-28T10:01:35;9.60;;;6.60;;
1306;SDS011;646;48.696;9.114;2023-02-28T10:07:07;9.82;;;7.53;;
1306;SDS011;646;48.696;9.114;2023-02-28T10:09:44;7.72;;;6.93;;
1306;SDS011;646;48.696;9.114;2023-02-28T10:12:14;9.70;;;7.00;;
1306;SDS011;646;48.696;9.114;2023-02-28T10:14:42;10.77;;;8.20;;
1306;SDS011;646;48.696;9.114;2023-02-28T10:17:11;11.52;;;8.88;;
1306;SDS011;646;48.696;9.114;2023-02-28T10:19:42;9.52;;;8.55;;
1306;SDS011;646;48.696;9.114;2023-02-28T10:25:17;9.63;;;8.20;;
1306;SDS011;646;48.696;9.114;2023-02-28T10:27:44;11.10;;;8.00;;
1306;SDS011;646;48.696;9.114;2023-02-28T10:30:10;11.60;;;8.13;;
1306;SDS011;646;48.696;9.114;2023-02-28T10:32:38;9.07;;;8.15;;
1306;SDS011;646;48.696;9.114;2023-02-28T10:35:16;10.55;;;7.85;;
1306;SDS011;646;48.696;9.114;2023-02-28T10:37:46;13.48;;;9.35;;
1306;SDS011;646;48.696;9.114;2023-02-28T10:42:57;10.68;;;8.63;;
1306;SDS011;646;48.696;9.114;2023-02-28T10:45:28;8.50;;;7.70;;
1306;SDS011;646;48.696;9.114;2023-02-28T10:48:01;9.43;;;8.45;;
1306;SDS011;646;48.696;9.114;2023-02-28T10:50:50;11.63;;;9.30;;
1306;SDS011;646;48.696;9.114;2023-02-28T10:58:24;11.50;;;9.40;;
1306;SDS011;646;48.696;9.114;2023-02-28T11:00:51;9.77;;;8.50;;
1306;SDS011;646;48.696;9.114;2023-02-28T11:03:23;13.10;;;8.02;;
1306;SDS011;646;48.696;9.114;2023-02-28T11:05:50;9.02;;;7.32;;
1306;SDS011;646;48.696;9.114;2023-02-28T11:08:17;8.50;;;7.70;;
1306;SDS011;646;48.696;9.114;2023-02-28T11:10:47;9.18;;;8.27;;
1306;SDS011;646;48.696;9.114;2023-02-28T11:13:20;12.95;;;8.68;;
1306;SDS011;646;48.696;9.114;2023-02-28T11:15:56;10.70;;;9.10;;
1306;SDS011;646;48.696;9.114;2023-02-28T11:21:03;12.88;;;9.13;;
1306;SDS011;646;48.696;9.114;2023-02-28T11:23:29;9.50;;;8.47;;
1306;SDS011;646;48.696;9.114;2023-02-28T11:25:58;10.57;;;8.50;;
1306;SDS011;646;48.696;9.114;2023-02-28T11:28:37;10.00;;;9.10;;
1306;SDS011;646;48.696;9.114;2023-02-28T11:33:40;10.23;;;9.23;;
1306;SDS011;646;48.696;9.114;2023-02-28T11:36:19;9.98;;;8.95;;
1306;SDS011;646;48.696;9.114;2023-02-28T11:38:52;9.57;;;8.38;;
1306;SDS011;646;48.696;9.114;2023-02-28T11:47:07;10.53;;;9.33;;
1306;SDS011;646;48.696;9.114;2023-02-28T11:50:04;10.80;;;9.90;;
1306;SDS011;646;48.696;9.114;2023-02-28T11:52:46;11.07;;;10.13;;
1306;SDS011;646;48.696;9.114;2023-02-28T11:55:25;11.90;;;9.90;;
1306;SDS011;646;48.696;9.114;2023-02-28T12:00:57;10.97;;;9.80;;
1306;SDS011;646;48.696;9.114;2023-02-28T12:03:37;9.77;;;8.97;;
1306;SDS011;646;48.696;9.114;2023-02-28T12:08:49;10.90;;;9.90;;
1306;SDS011;646;48.696;9.114;2023-02-28T12:22:53;11.07;;;9.97;;
1306;SDS011;646;48.696;9.114;2023-02-28T12:28:26;10.50;;;9.00;;
1306;SDS011;646;48.696;9.114;2023-02-28T12:31:01;10.60;;;9.50;;
1306;SDS011;646;48.696;9.114;2023-02-28T12:33:40;11.30;;;10.23;;
1306;SDS011;646;48.696;9.114;2023-02-28T12:36:10;11.00;;;10.10;;
1306;SDS011;646;48.696;9.114;2023-02-28T12:41:12;9.47;;;8.57;;
1306;SDS011;646;48.696;9.114;2023-02-28T12:43:42;10.77;;;9.77;;
1306;SDS011;646;48.696;9.114;2023-02-28T12:46:15;10.80;;;9.80;;
1306;SDS011;646;48.696;9.114;2023-02-28T12:48:52;11.10;;;10.10;;
1306;SDS011;646;48.696;9.114;2023-02-28T12:51:21;11.90;;;9.80;;
1306;SDS011;646;48.696;9.114;2023-02-28T12:56:31;11.13;;;10.03;;
1306;SDS011;646;48.696;9.114;2023-02-28T13:10:12;9.97;;;9.17;;
1306;SDS011;646;48.696;9.114;2023-02-28T13:12:50;10.40;;;9.50;;
1306;SDS011;646;48.696;9.114;2023-02-28T13:15:19;12.43;;;11.43;;
1306;SDS011;646;48.696;9.114;2023-02-28T13:17:55;10.37;;;9.47;;
1306;SDS011;646;48.696;9.114;2023-02-28T13:20:31;12.40;;;11.30;;
1306;SDS011;646;48.696;9.114;2023-02-28T13:26:22;10.60;;;9.70;;
1306;SDS011;646;48.696;9.114;2023-02-28T13:31:13;11.27;;;10.27;;
1306;SDS011;646;48.696;9.114;2023-02-28T13:38:43;10.43;;;9.43;;
1306;SDS011;646;48.696;9.114;2023-02-28T13:46:32;10.97;;;10.03;;
1306;SDS011;646;48.696;9.114;2023-02-28T13:51:49;11.20;;;10.10;;
1306;SDS011;646;48.696;9.114;2023-02-28T13:54:28;14.13;;;12.73;;
1306;SDS011;646;48.696;9.114;2023-02-28T14:06:09;14.23;;;12.93;;
1306;SDS011;646;48.696;9.114;2023-02-28T14:08:38;12.10;;;11.00;;
1306;SDS011;646;48.696;9.114;2023-02-28T14:11:35;10.50;;;9.50;;
1306;SDS011;646;48.696;9.114;2023-02-28T14:14:03;10.17;;;9.37;;
1306;SDS011;646;48.696;9.114;2023-02-28T14:16:44;13.00;;;11.80;;
1306;SDS011;646;48.696;9.114;2023-02-28T14:19:12;11.53;;;10.63;;
1306;SDS011;646;48.696;9.114;2023-02-28T14:36:14;11.87;;;10.73;;
1306;SDS011;646;48.696;9.114;2023-02-28T14:39:22;10.70;;;9.90;;
1306;SDS011;646;48.696;9.114;2023-02-28T14:41:50;9.77;;;8.90;;
1306;SDS011;646;48.696;9.114;2023-02-28T14:44:26;11.00;;;10.00;;
1306;SDS011;646;48.696;9.114;2023-02-28T14:47:02;10.77;;;9.87;;
1306;SDS011;646;48.696;9.114;2023-02-28T14:49:34;10.77;;;9.77;;
1306;SDS011;646;48.696;9.114;2023-02-28T14:52:14;10.40;;;9.50;;
1306;SDS011;646;48.696;9.114;2023-02-28T14:54:43;10.83;;;9.93;;
1306;SDS011;646;48.696;9.114;2023-02-28T14:57:27;9.37;;;8.53;;
1306;SDS011;646;48.696;9.114;2023-02-28T15:02:45;10.10;;;9.13;;
1306;SDS011;646;48.696;9.114;2023-02-28T15:07:45;9.80;;;8.90;;
1306;SDS011;646;48.696;9.114;2023-02-28T15:10:20;10.00;;;9.10;;
1306;SDS011;646;48.696;9.114;2023-02-28T15:12:57;11.07;;;9.87;;
1306;SDS011;646;48.696;9.114;2023-02-28T15:15:42;10.83;;;9.83;;
1306;SDS011;646;48.696;9.114;2023-02-28T15:18:14;10.37;;;9.47;;
1306;SDS011;646;48.696;9.114;2023-02-28T15:20:55;10.67;;;9.70;;
1306;SDS011;646;48.696;9.114;2023-02-28T15:23:31;11.95;;;10.55;;
1306;SDS011;646;48.696;9.114;2023-02-28T15:25:57;9.93;;;8.80;;
1306;SDS011;646;48.696;9.114;2023-02-28T15:28:24;10.85;;;9.75;;
1306;SDS011;646;48.696;9.114;2023-02-28T15:30:51;12.20;;;9.20;;
1306;SDS011;646;48.696;9.114;2023-02-28T15:33:26;13.38;;;11.50;;
1306;SDS011;646;48.696;9.114;2023-02-28T15:36:06;18.50;;;16.70;;
1306;SDS011;646;48.696;9.114;2023-02-28T15:38:42;18.67;;;16.85;;
1306;SDS011;646;48.696;9.114;2023-02-28T15:41:21;12.80;;;11.60;;
1306;SDS011;646;48.696;9.114;2023-02-28T15:43:49;12.63;;;9.65;;
1306;SDS011;646;48.696;9.114;2023-02-28T15:47:02;14.52;;;12.02;;
1306;SDS011;646;48.696;9.114;2023-02-28T15:49:37;10.80;;;9.70;;
1306;SDS011;646;48.696;9.114;2023-02-28T15:52:10;15.15;;;11.85;;
1306;SDS011;646;48.696;9.114;2023-02-28T15:54:40;11.07;;;8.85;;
1306;SDS011;646;48.696;9.114;2023-02-28T15:57:10;12.90;;;11.32;;
1306;SDS011;646;48.696;9.114;2023-02-28T15:59:49;13.32;;;11.00;;
1306;SDS011;646;48.696;9.114;2023-02-28T16:02:20;10.55;;;9.45;;
1306;SDS011;646;48.696;9.114;2023-02-28T16:04:55;10.57;;;8.85;;
1306;SDS011;646;48.696;9.114;2023-02-28T16:07:26;9.30;;;8.05;;
1306;SDS011;646;48.696;9.114;2023-02-28T16:09:52;9.73;;;8.70;;
1306;SDS011;646;48.696;9.114;2023-02-28T16:12:18;10.55;;;9.45;;
1306;SDS011;646;48.696;9.114;2023-02-28T16:14:45;10.27;;;8.73;;
1306;SDS011;646;48.696;9.114;2023-02-28T16:17:16;12.60;;;8.82;;
1306;SDS011;646;48.696;9.114;2023-02-28T16:19:49;13.75;;;9.90;;
1306;SDS011;646;48.696;9.114;2023-02-28T16:22:15;11.97;;;8.60;;
1306;SDS011;646;48.696;9.114;2023-02-28T16:24:40;10.77;;;9.10;;
1306;SDS011;646;48.696;9.114;2023-02-28T16:27:06;9.83;;;8.80;;
1306;SDS011;646;48.696;9.114;2023-02-28T16:29:39;10.25;;;9.23;;
1306;SDS011;646;48.696;9.114;2023-02-28T16:32:05;12.03;;;9.73;;
1306;SDS011;646;48.696;9.114;2023-02-28T16:34:31;10.00;;;9.00;;
1306;SDS011;646;48.696;9.114;2023-02-28T16:36:56;11.20;;;8.63;;
1306;SDS011;646;48.696;9.114;2023-02-28T16:39:23;14.02;;;10.02;;
1306;SDS011;646;48.696;9.114;2023-02-28T16:41:49;11.27;;;9.65;;
1306;SDS011;646;48.696;9.114;2023-02-28T16:44:27;15.00;;;9.60;;
1306;SDS011;646;48.696;9.114;2023-02-28T16:46:54;11.75;;;9.25;;
1306;SDS011;646;48.696;9.114;2023-02-28T16:49:20;11.07;;;9.97;;
1306;SDS011;646;48.696;9.114;2023-02-28T16:51:46;11.30;;;8.53;;
1306;SDS011;646;48.696;9.114;2023-02-28T16:54:11;12.50;;;8.93;;
1306;SDS011;646;48.696;9.114;2023-02-28T16:56:37;11.10;;;8.50;;
1306;SDS011;646;48.696;9.114;2023-02-28T16:59:07;9.40;;;8.13;;
1306;SDS011;646;48.696;9.114;2023-02-28T17:01:35;10.98;;;8.55;;
1306;SDS011;646;48.696;9.114;2023-02-28T17:04:00;12.83;;;10.43;;
1306;SDS011;646;48.696;9.114;2023-02-28T17:06:27;11.90;;;10.60;;
1306;SDS011;646;48.696;9.114;2023-02-28T17:08:54;12.43;;;11.13;;
1306;SDS011;646;48.696;9.114;2023-02-28T17:11:21;18.77;;;13.43;;
1306;SDS011;646;48.696;9.114;2023-02-28T17:13:47;14.00;;;12.57;;
1306;SDS011;646;48.696;9.114;2023-02-28T17:16:34;10.57;;;9.33;;
1306;SDS011;646;48.696;9.114;2023-02-28T17:19:02;9.15;;;7.88;;
1306;SDS011;646;48.696;9.114;2023-02-28T17:21:30;10.70;;;9.60;;
1306;SDS011;646;48.696;9.114;2023-02-28T17:23:56;11.45;;;8.82;;
1306;SDS011;646;48.696;9.114;2023-02-28T17:26:22;10.07;;;8.98;;
1306;SDS011;646;48.696;9.114;2023-02-28T17:28:49;10.60;;;9.00;;
1306;SDS011;646;48.696;9.114;2023-02-28T17:31:16;11.90;;;9.70;;
1306;SDS011;646;48.696;9.114;2023-02-28T17:33:42;11.20;;;9.75;;
1306;SDS011;646;48.696;9.114;2023-02-28T17:36:10;12.02;;;10.77;;
1306;SDS011;646;48.696;9.114;2023-02-28T17:38:39;13.02;;;10.45;;
1306;SDS011;646;48.696;9.114;2023-02-28T17:41:04;13.50;;;10.13;;
1306;SDS011;646;48.696;9.114;2023-02-28T17:43:30;14.03;;;10.87;;
1306;SDS011;646;48.696;9.114;2023-02-28T17:45:55;12.17;;;8.43;;
1306;SDS011;646;48.696;9.114;2023-02-28T17:48:21;10.40;;;9.27;;
1306;SDS011;646;48.696;9.114;2023-02-28T17:50:47;11.40;;;9.13;;
1306;SDS011;646;48.696;9.114;2023-02-28T17:53:12;11.03;;;8.80;;
1306;SDS011;646;48.696;9.114;2023-02-28T17:55:38;11.10;;;8.70;;
1306;SDS011;646;48.696;9.114;2023-02-28T17:58:03;11.83;;;9.70;;
1306;SDS011;646;48.696;9.114;2023-02-28T18:00:29;11.60;;;9.37;;